Time;durP1;ratioP1;P1;durP2;ratioP2;P2;SDS_P1;SDS_P2;PMS_P1;PMS_P2;Temp;Humidity;BMP_temperature;BMP_pressure;BME280_temperature;BME280_humidity;BME280_pressure;Samples;Min_cycle;Max_cycle;Signal;HPM_P1;HPM_P2
2024/01/31 00:01:46;;;;;;;56.80;23.07;;;;;;;-141.97;88.46;46016.38;4998161;28;20167;-89
2024/01/31 00:04:11;;;;;;;51.53;19.53;;;;;;;-141.97;87.96;46235.41;5027862;28;20171;-89
2024/01/31 00:06:37;;;;;;;53.03;20.30;;;;;;;-141.97;88.19;46600.47;5027015;28;20237;-88
2024/01/31 00:09:03;;;;;;;52.83;17.87;;;;;;;-141.97;88.60;46214.25;4994151;28;20179;-89
2024/01/31 00:11:29;;;;;;;46.28;19.17;;;;;;;-141.97;88.95;46106.66;5010193;28;20185;-90
2024/01/31 00:13:57;;;;;;;49.07;19.93;;;;;;;-141.97;89.17;46212.34;5012993;28;20166;-90
2024/01/31 00:16:22;;;;;;;48.28;20.05;;;;;;;-141.97;89.09;46268.06;5032042;28;20162;-89
2024/01/31 00:18:50;;;;;;;51.97;20.10;;;;;;;-141.97;88.78;46471.72;4978060;28;20190;-90
2024/01/31 00:21:16;;;;;;;50.97;18.63;;;;;;;-141.97;88.76;46099.00;5011879;28;20218;-89
2024/01/31 00:23:41;;;;;;;42.58;18.33;;;;;;;-141.97;88.48;46154.69;5025720;28;20223;-90
2024/01/31 00:26:07;;;;;;;47.77;18.47;;;;;;;-141.97;88.47;46289.19;5005192;28;20179;-85
2024/01/31 00:28:32;;;;;;;53.27;21.67;;;;;;;-141.97;88.07;46027.91;5030241;28;20210;-89
2024/01/31 00:30:58;;;;;;;65.23;26.00;;;;;;;-141.97;87.85;46172.00;4979348;28;20183;-89
2024/01/31 00:33:23;;;;;;;52.87;21.77;;;;;;;-141.97;87.48;46450.59;4993335;28;20199;-90
2024/01/31 00:35:48;;;;;;;42.40;16.77;;;;;;;-141.97;87.48;46477.50;5009943;28;20198;-88
2024/01/31 00:38:14;;;;;;;48.10;18.50;;;;;;;-141.97;87.12;46492.88;5009672;28;20179;-89
2024/01/31 00:40:39;;;;;;;44.53;17.80;;;;;;;-141.97;86.73;46475.56;4994061;28;20241;-89
2024/01/31 00:43:05;;;;;;;37.43;15.00;;;;;;;-141.97;86.69;46043.28;5026355;28;20222;-89
2024/01/31 00:45:30;;;;;;;50.00;18.40;;;;;;;-141.97;87.82;46635.06;4994226;28;20174;-90
2024/01/31 00:47:56;;;;;;;51.73;18.10;;;;;;;-141.97;87.79;46052.88;4995776;28;20210;-87
2024/01/31 00:50:21;;;;;;;47.97;18.73;;;;;;;-141.97;87.79;46479.41;5021003;28;20179;-88
2024/01/31 00:52:47;;;;;;;43.13;16.00;;;;;;;-141.97;87.73;46133.56;5026393;28;20182;-89
2024/01/31 00:55:12;;;;;;;39.00;14.90;;;;;;;-141.97;87.94;46193.13;5009241;28;20167;-89
2024/01/31 00:57:38;;;;;;;37.73;15.27;;;;;;;-141.97;88.45;46102.81;5013119;28;20164;-90
2024/01/31 01:00:05;;;;;;;40.13;15.17;;;;;;;-141.97;88.57;46266.13;5013465;28;20328;-85
2024/01/31 01:02:30;;;;;;;54.13;18.20;;;;;;;-141.97;87.98;46220.03;4977745;28;20167;-88
2024/01/31 01:04:56;;;;;;;52.50;19.33;;;;;;;-141.97;87.91;46273.81;4992531;28;20286;-88
2024/01/31 01:07:21;;;;;;;53.30;18.63;;;;;;;-141.97;87.30;46435.22;5008764;28;20614;-87
2024/01/31 01:09:47;;;;;;;58.90;18.13;;;;;;;-141.97;87.00;46039.44;4980466;28;20265;-89
2024/01/31 01:12:12;;;;;;;46.73;16.60;;;;;;;-141.97;86.89;46123.97;4993306;28;20229;-89
2024/01/31 01:14:38;;;;;;;45.00;15.03;;;;;;;-141.97;87.15;46366.06;5008916;28;20296;-88
2024/01/31 01:17:04;;;;;;;36.33;13.90;;;;;;;-141.97;87.39;46546.66;5005755;28;20166;-88
2024/01/31 01:19:29;;;;;;;37.97;14.97;;;;;;;-141.97;87.86;46465.97;4994944;28;20245;-88
2024/01/31 01:21:56;;;;;;;40.30;15.13;;;;;;;-141.97;88.59;46392.94;5010287;28;20167;-88
2024/01/31 01:24:21;;;;;;;40.80;15.88;;;;;;;-141.97;88.74;46477.50;4976490;28;20666;-87
2024/01/31 01:26:47;;;;;;;50.00;15.50;;;;;;;-141.97;88.57;46617.75;4993074;28;20266;-88
2024/01/31 01:29:12;;;;;;;55.83;17.97;;;;;;;-141.97;88.17;46264.22;5024650;28;20225;-87
2024/01/31 01:31:38;;;;;;;58.63;18.17;;;;;;;-141.97;87.85;46035.59;5008621;28;20178;-87
2024/01/31 01:34:04;;;;;;;48.77;17.53;;;;;;;-141.97;87.83;46504.38;5008587;28;20181;-89
2024/01/31 01:36:29;;;;;;;54.13;16.57;;;;;;;-141.97;87.00;46193.13;4992361;28;20233;-87
2024/01/31 01:38:54;;;;;;;58.47;17.20;;;;;;;-141.97;86.76;46162.38;5008622;28;20611;-88
2024/01/31 01:41:20;;;;;;;43.70;15.37;;;;;;;-141.97;86.40;46585.09;5010095;28;20167;-88
2024/01/31 01:43:47;;;;;;;36.37;13.50;;;;;;;-141.97;87.07;46308.41;5025554;28;20166;-86
2024/01/31 01:46:14;;;;;;;40.40;14.50;;;;;;;-141.97;88.19;46523.59;5009647;28;20219;-86
2024/01/31 01:48:40;;;;;;;39.80;14.43;;;;;;;-141.97;88.81;46066.31;5005841;28;20313;-85
2024/01/31 01:51:05;;;;;;;33.10;12.70;;;;;;;-141.97;88.97;46563.97;5008557;28;20646;-87
2024/01/31 01:53:31;;;;;;;31.40;11.93;;;;;;;-141.97;88.98;46016.38;5007948;28;20268;-87
2024/01/31 01:55:56;;;;;;;37.53;14.27;;;;;;;-141.97;88.89;46216.19;4991747;28;20509;-87
2024/01/31 01:58:22;;;;;;;37.30;14.57;;;;;;;-141.97;87.84;46515.91;5009610;28;20654;-87
2024/01/31 02:00:47;;;;;;;31.50;13.00;;;;;;;-141.97;87.85;46264.22;5012061;28;20167;-87
2024/01/31 02:03:13;;;;;;;29.53;12.63;;;;;;;-141.97;88.26;46262.28;5009372;28;20240;-87
2024/01/31 02:05:39;;;;;;;33.78;12.90;;;;;;;-141.97;88.19;46074.00;5024629;28;20218;-87
2024/01/31 02:08:05;;;;;;;35.03;13.50;;;;;;;-141.97;88.05;46608.16;4991943;28;20241;-86
2024/01/31 02:10:30;;;;;;;31.45;13.38;;;;;;;-141.97;87.55;46289.19;5006517;28;20643;-85
2024/01/31 02:12:56;;;;;;;35.03;13.67;;;;;;;-141.97;87.27;46627.38;5008731;28;20197;-86
2024/01/31 02:15:21;;;;;;;31.77;13.70;;;;;;;-141.97;87.04;46012.53;5025228;28;20175;-86
2024/01/31 02:17:47;;;;;;;33.37;13.87;;;;;;;-141.97;86.81;46158.53;5014429;28;20210;-86
2024/01/31 02:20:15;;;;;;;35.97;14.10;;;;;;;-141.97;86.43;46341.06;5011984;28;20170;-86
2024/01/31 02:22:44;;;;;;;32.30;13.25;;;;;;;-141.97;86.29;46304.56;5011924;28;20574;-86
2024/01/31 02:25:15;;;;;;;31.05;12.77;;;;;;;-141.97;85.71;46465.97;5011415;28;20169;-86
2024/01/31 02:27:41;;;;;;;37.25;12.88;;;;;;;-141.97;85.28;46289.19;4996043;28;20198;-86
2024/01/31 02:30:09;;;;;;;30.13;11.93;;;;;;;-141.97;86.00;46287.28;5013894;28;20212;-86
2024/01/31 02:32:36;;;;;;;29.05;12.27;;;;;;;-141.97;86.69;46147.03;5001093;28;20592;-86
2024/01/31 02:35:01;;;;;;;30.00;11.52;;;;;;;-141.97;86.56;46562.03;5013459;28;20178;-87
2024/01/31 02:37:26;;;;;;;29.80;11.37;;;;;;;-141.97;85.94;46296.88;5013384;28;20175;-86
2024/01/31 02:39:52;;;;;;;44.23;15.57;;;;;;;-141.97;85.78;46521.69;5032400;28;20163;-85
2024/01/31 02:42:18;;;;;;;53.47;17.50;;;;;;;-141.97;85.79;46587.00;5033733;28;20168;-83
2024/01/31 02:44:43;;;;;;;37.92;14.23;;;;;;;-141.97;86.41;46294.97;5050055;28;20181;-86
2024/01/31 02:47:09;;;;;;;29.60;10.57;;;;;;;-141.97;86.58;46517.84;5017333;28;20198;-82
2024/01/31 02:49:34;;;;;;;32.93;12.67;;;;;;;-141.97;86.46;46316.09;5022443;28;20234;-84
2024/01/31 02:52:00;;;;;;;29.33;10.13;;;;;;;-141.97;86.80;46275.75;5018653;28;20192;-88
2024/01/31 02:54:25;;;;;;;29.60;12.07;;;;;;;-141.97;87.43;46308.41;4986383;28;20708;-89
2024/01/31 02:56:50;;;;;;;22.73;9.50;;;;;;;-141.97;87.49;46012.53;5004765;28;20178;-88
2024/01/31 02:59:16;;;;;;;18.13;7.43;;;;;;;-141.97;87.90;46095.16;4983395;28;20178;-87
2024/01/31 03:01:45;;;;;;;27.00;11.10;;;;;;;-141.97;87.93;46285.34;4998644;28;20169;-88
2024/01/31 03:04:10;;;;;;;26.45;11.18;;;;;;;-141.97;88.30;46300.72;4999047;28;20194;-87
2024/01/31 03:06:36;;;;;;;21.93;9.07;;;;;;;-141.97;88.46;46569.72;4999187;28;20213;-87
2024/01/31 03:09:01;;;;;;;28.83;11.03;;;;;;;-141.97;88.63;46198.91;4998856;28;20162;-88
2024/01/31 03:11:27;;;;;;;24.63;9.07;;;;;;;-141.97;88.75;46291.13;4994616;28;20632;-87
2024/01/31 03:13:53;;;;;;;22.93;10.07;;;;;;;-141.97;89.10;46254.59;5011483;28;20182;-84
2024/01/31 03:16:18;;;;;;;29.60;10.90;;;;;;;-141.97;89.68;46198.91;5015436;28;20249;-85
2024/01/31 03:18:43;;;;;;;28.07;11.33;;;;;;;-141.97;90.04;46538.97;5014361;28;20231;-86
2024/01/31 03:21:09;;;;;;;24.73;10.57;;;;;;;-141.97;90.58;46216.19;5032037;28;20162;-86
2024/01/31 03:23:34;;;;;;;26.10;10.93;;;;;;;-141.97;90.59;46310.31;5014425;28;20169;-86
2024/01/31 03:26:00;;;;;;;20.30;7.87;;;;;;;-141.97;90.28;46300.72;5032809;28;20162;-85
2024/01/31 03:28:25;;;;;;;26.07;10.30;;;;;;;-141.97;90.26;46110.50;5019408;28;20243;-86
2024/01/31 03:30:50;;;;;;;25.10;9.90;;;;;;;-141.97;90.77;46237.31;5001679;28;20178;-85
2024/01/31 03:33:16;;;;;;;28.63;9.97;;;;;;;-141.97;90.88;46289.19;4983648;28;20465;-85
2024/01/31 03:35:41;;;;;;;24.77;8.93;;;;;;;-141.97;91.19;46316.09;5010701;28;20163;-85
2024/01/31 03:38:08;;;;;;;25.10;10.87;;;;;;;-141.97;91.92;46252.69;5012162;28;20174;-88
2024/01/31 03:40:33;;;;;;;27.27;10.40;;;;;;;-141.97;91.89;46642.75;4979727;28;20190;-87
2024/01/31 03:42:59;;;;;;;30.30;11.30;;;;;;;-141.97;92.10;46573.56;4979223;28;20179;-87
2024/01/31 03:45:26;;;;;;;21.60;9.57;;;;;;;-141.97;91.94;46281.50;4979620;28;20166;-85
2024/01/31 03:47:51;;;;;;;27.55;10.27;;;;;;;-141.97;91.54;46271.91;4995481;28;20214;-87
2024/01/31 03:50:17;;;;;;;23.47;8.93;;;;;;;-141.97;91.34;46298.81;4978501;28;20209;-88
2024/01/31 03:52:42;;;;;;;22.83;9.57;;;;;;;-141.97;91.31;46191.22;4977631;28;20205;-85
2024/01/31 03:55:09;;;;;;;29.30;11.73;;;;;;;-141.97;91.23;46304.56;4994552;28;20171;-85
2024/01/31 03:57:34;;;;;;;33.92;14.38;;;;;;;-141.97;91.32;46312.25;5011905;28;20240;-86
2024/01/31 04:00:05;;;;;;;34.40;15.83;;;;;;;-141.97;92.04;46281.50;4994261;28;20608;-84
2024/01/31 04:02:30;;;;;;;31.33;13.68;;;;;;;-141.97;91.98;46366.06;4994918;28;20159;-84
2024/01/31 04:04:56;;;;;;;30.63;12.00;;;;;;;-141.97;91.83;46294.97;5027232;28;20198;-85
2024/01/31 04:07:21;;;;;;;26.70;10.70;;;;;;;-141.97;91.68;46304.56;5011049;28;20223;-84
2024/01/31 04:09:46;;;;;;;40.27;15.93;;;;;;;-141.97;91.29;46289.19;5010106;28;20263;-83
2024/01/31 04:12:12;;;;;;;70.20;22.93;;;;;;;-141.97;91.27;46335.31;5011515;28;20174;-84
2024/01/31 04:14:37;;;;;;;129.33;44.67;;;;;;;-141.97;91.00;46277.66;4993718;28;20171;-83
2024/01/31 04:17:03;;;;;;;64.07;25.43;;;;;;;-141.97;90.91;46287.28;4994550;28;20182;-84
2024/01/31 04:19:28;;;;;;;49.23;17.83;;;;;;;-141.97;91.70;46325.69;5028419;28;20549;-86
2024/01/31 04:21:54;;;;;;;60.77;23.27;;;;;;;-141.97;91.49;46260.38;5003636;28;20171;-85
2024/01/31 04:24:19;;;;;;;26.00;10.63;;;;;;;-141.97;91.20;46293.03;5009808;28;20575;-86
2024/01/31 04:26:45;;;;;;;28.57;12.80;;;;;;;-141.97;90.79;46321.84;5010850;28;20174;-85
2024/01/31 04:29:10;;;;;;;45.03;17.27;;;;;;;-141.97;89.97;46318.00;4993918;28;20178;-85
2024/01/31 04:31:36;;;;;;;110.70;43.53;;;;;;;-141.97;89.97;46302.66;4993768;28;20182;-86
2024/01/31 04:34:04;;;;;;;67.73;28.80;;;;;;;-141.97;89.36;46198.91;5010968;28;20178;-86
2024/01/31 04:36:30;;;;;;;55.13;20.67;;;;;;;-141.97;89.38;46310.31;5010562;28;20208;-87
2024/01/31 04:38:56;;;;;;;146.55;57.00;;;;;;;-141.97;89.17;46156.63;5010173;28;20183;-86
2024/01/31 04:41:21;;;;;;;163.10;60.13;;;;;;;-141.97;89.12;46287.28;5029271;28;20185;-86
2024/01/31 04:43:47;;;;;;;97.20;38.20;;;;;;;-141.97;88.59;46223.88;5032093;28;20162;-88
2024/01/31 04:46:13;;;;;;;74.83;30.70;;;;;;;-141.97;88.40;46231.56;5015080;28;20162;-87
2024/01/31 04:48:39;;;;;;;64.78;26.23;;;;;;;-141.97;88.23;46287.28;4997747;28;20205;-87
2024/01/31 04:51:05;;;;;;;63.17;25.83;;;;;;;-141.97;88.39;46527.44;4996355;28;20261;-86
2024/01/31 04:53:30;;;;;;;67.00;27.77;;;;;;;-141.97;87.99;46308.41;4995734;28;20193;-87
2024/01/31 04:55:56;;;;;;;70.53;27.43;;;;;;;-141.97;87.82;46348.75;4996810;28;20174;-86
2024/01/31 04:58:22;;;;;;;80.33;36.40;;;;;;;-141.97;87.90;46120.13;4994891;28;20200;-87
2024/01/31 05:00:47;;;;;;;72.97;31.17;;;;;;;-141.97;87.66;46296.88;4996279;28;20421;-87
2024/01/31 05:03:13;;;;;;;74.23;33.03;;;;;;;-141.97;87.21;46304.56;5003785;28;20167;-87
2024/01/31 05:05:38;;;;;;;77.10;34.57;;;;;;;-141.97;87.60;46304.56;5012024;28;20218;-88
2024/01/31 05:08:05;;;;;;;98.27;39.43;;;;;;;-141.97;87.37;46193.13;4994160;28;20646;-89
2024/01/31 05:10:33;;;;;;;62.90;27.42;;;;;;;-141.97;87.26;46540.91;4997764;28;20167;-85
2024/01/31 05:12:59;;;;;;;57.75;24.48;;;;;;;-141.97;87.08;46220.03;4982247;28;20167;-86
2024/01/31 05:15:25;;;;;;;62.70;25.03;;;;;;;-141.97;87.00;46300.72;4977449;28;20654;-87
2024/01/31 05:17:50;;;;;;;85.93;31.77;;;;;;;-141.97;86.97;46289.19;4994112;28;20202;-87
2024/01/31 05:20:19;;;;;;;108.63;38.97;;;;;;;-141.97;86.63;46091.31;4993865;28;20174;-88
2024/01/31 05:22:44;;;;;;;140.27;47.40;;;;;;;-141.97;86.80;46173.91;5026065;28;20170;-88
2024/01/31 05:25:09;;;;;;;62.47;24.97;;;;;;;-141.97;86.88;46527.44;4992708;28;20217;-88
2024/01/31 05:27:36;;;;;;;45.03;17.03;;;;;;;-141.97;86.96;46296.88;5008822;28;20194;-88
2024/01/31 05:30:03;;;;;;;62.63;25.35;;;;;;;-141.97;87.36;46294.97;5008981;28;20268;-89
2024/01/31 05:32:30;;;;;;;43.70;18.45;;;;;;;-141.97;87.16;46054.81;4992344;28;20609;-87
2024/01/31 05:34:55;;;;;;;38.53;14.50;;;;;;;-141.97;87.27;46535.13;5024857;28;20241;-87
2024/01/31 05:37:21;;;;;;;35.67;14.17;;;;;;;-141.97;87.61;46316.09;5025000;28;20163;-88
2024/01/31 05:39:46;;;;;;;33.63;12.57;;;;;;;-141.97;88.00;46323.78;5009922;28;20178;-87
2024/01/31 05:42:12;;;;;;;30.93;12.63;;;;;;;-141.97;88.22;46271.91;4983214;28;20171;-87
2024/01/31 05:44:37;;;;;;;29.93;12.53;;;;;;;-141.97;88.19;46604.31;4992391;28;20241;-87
2024/01/31 05:47:03;;;;;;;33.30;11.93;;;;;;;-141.97;87.83;46321.84;4992184;28;20198;-87
2024/01/31 05:49:28;;;;;;;31.57;12.27;;;;;;;-141.97;87.99;46120.13;5009265;28;20186;-87
2024/01/31 05:51:54;;;;;;;32.53;11.60;;;;;;;-141.97;87.67;46302.66;5008274;28;20255;-88
2024/01/31 05:54:19;;;;;;;37.80;14.67;;;;;;;-141.97;87.79;46316.09;5009407;28;20662;-88
2024/01/31 05:56:44;;;;;;;47.20;17.53;;;;;;;-141.97;88.11;46504.38;4975682;28;20197;-88
2024/01/31 05:59:10;;;;;;;32.43;12.53;;;;;;;-141.97;87.93;46304.56;5009705;28;20159;-87
2024/01/31 06:01:35;;;;;;;33.07;13.17;;;;;;;-141.97;88.26;46366.06;4992591;28;20169;-87
2024/01/31 06:04:03;;;;;;;37.90;13.53;;;;;;;-141.97;88.16;46289.19;5013262;28;20159;-88
2024/01/31 06:06:29;;;;;;;43.10;14.13;;;;;;;-141.97;88.22;46189.28;4996044;28;20313;-87
2024/01/31 06:08:55;;;;;;;35.97;14.13;;;;;;;-141.97;87.94;46450.59;5013221;28;20217;-85
2024/01/31 06:11:21;;;;;;;42.67;19.95;;;;;;;-141.97;88.68;46223.88;4996696;28;20183;-85
2024/01/31 06:13:46;;;;;;;99.03;41.33;;;;;;;-141.97;89.24;46304.56;4998077;28;20194;-87
2024/01/31 06:16:12;;;;;;;88.47;41.13;;;;;;;-141.97;90.56;46125.88;4997060;28;20186;-88
2024/01/31 06:18:38;;;;;;;74.33;32.03;;;;;;;-141.97;90.42;46579.31;4995565;28;20175;-85
2024/01/31 06:21:04;;;;;;;55.10;26.17;;;;;;;-141.97;90.88;46304.56;4995769;28;20171;-87
2024/01/31 06:23:30;;;;;;;57.47;24.65;;;;;;;-141.97;90.72;46239.25;4995344;28;20181;-87
2024/01/31 06:25:55;;;;;;;63.23;26.80;;;;;;;-141.97;90.62;46504.38;5011761;28;20178;-85
2024/01/31 06:28:20;;;;;;;54.17;21.70;;;;;;;-141.97;90.84;46500.56;5011758;28;20202;-86
2024/01/31 06:30:53;;;;;;;67.37;25.20;;;;;;;-141.97;91.11;46281.50;5011373;28;20189;-86
2024/01/31 06:33:23;;;;;;;62.60;22.63;;;;;;;-141.97;91.22;46596.63;5010488;28;20175;-87
2024/01/31 06:35:48;;;;;;;53.15;19.55;;;;;;;-141.97;91.56;46544.75;5027377;28;20193;-86
2024/01/31 06:38:14;;;;;;;109.20;39.37;;;;;;;-141.97;90.84;46183.53;4996503;28;20176;-87
2024/01/31 06:40:39;;;;;;;114.13;49.30;;;;;;;-141.97;90.43;46535.13;4996260;28;20622;-85
2024/01/31 06:43:04;;;;;;;66.03;29.47;;;;;;;-141.97;89.89;46112.44;5029034;28;20586;-87
2024/01/31 06:45:30;;;;;;;111.57;47.90;;;;;;;-141.97;89.32;46143.19;5012403;28;20630;-88
2024/01/31 06:47:55;;;;;;;92.27;41.67;;;;;;;-141.97;88.45;46519.75;5012351;28;20635;-88
2024/01/31 06:50:21;;;;;;;73.87;27.67;;;;;;;-141.97;87.54;46243.09;5014760;28;20709;-87
2024/01/31 06:52:46;;;;;;;104.93;39.83;;;;;;;-141.97;85.96;46573.56;4996936;28;20198;-90
2024/01/31 06:55:13;;;;;;;196.00;51.67;;;;;;;-141.97;84.03;46652.34;5015216;28;20229;-87
2024/01/31 06:57:38;;;;;;;99.25;31.60;;;;;;;-141.97;83.16;46262.28;4996906;28;20209;-89
2024/01/31 07:00:06;;;;;;;89.37;32.60;;;;;;;-141.97;82.49;46135.50;4997014;28;20520;-89
2024/01/31 07:02:31;;;;;;;66.13;26.90;;;;;;;-141.97;80.82;46066.31;5013177;28;20178;-89
2024/01/31 07:04:57;;;;;;;60.53;27.03;;;;;;;-141.97;80.25;46097.06;4989186;28;20205;-90
2024/01/31 07:07:22;;;;;;;74.23;30.97;;;;;;;-141.97;79.22;46248.84;4993466;28;20222;-88
2024/01/31 07:09:48;;;;;;;42.00;16.37;;;;;;;-141.97;79.00;46006.78;5015464;28;20167;-88
2024/01/31 07:12:13;;;;;;;51.73;21.30;;;;;;;-141.97;78.65;46269.97;5029927;28;20167;-88
2024/01/31 07:14:42;;;;;;;40.97;17.90;;;;;;;-141.97;77.09;46200.81;5009564;28;20175;-88
2024/01/31 07:17:08;;;;;;;55.03;22.25;;;;;;;-141.97;76.28;46527.44;4997966;28;20263;-86
2024/01/31 07:19:33;;;;;;;38.83;17.03;;;;;;;-141.97;76.11;46050.97;4983757;28;20603;-89
2024/01/31 07:21:58;;;;;;;44.43;17.50;;;;;;;-141.97;74.78;46181.59;4985014;28;20233;-88
2024/01/31 07:24:24;;;;;;;38.83;16.33;;;;;;;-141.97;73.25;46170.06;4988437;28;20182;-86
2024/01/31 07:26:49;;;;;;;30.23;12.20;;;;;;;-141.97;72.29;46166.22;5021158;28;20170;-88
2024/01/31 07:29:15;;;;;;;36.63;15.37;;;;;;;-141.97;72.21;46427.53;5004206;28;20166;-87
2024/01/31 07:31:40;;;;;;;37.47;17.43;;;;;;;-141.97;71.54;46216.19;5004560;28;20166;-84
2024/01/31 07:34:06;;;;;;;34.73;16.33;;;;;;;-141.97;71.59;46216.19;5001070;28;20174;-85
2024/01/31 07:36:31;;;;;;;26.70;13.10;;;;;;;-141.97;71.97;46068.25;4988886;28;20485;-88
2024/01/31 07:38:56;;;;;;;16.77;8.00;;;;;;;-141.97;72.46;46250.78;4984884;28;20197;-87
2024/01/31 07:41:22;;;;;;;22.73;9.03;;;;;;;-141.97;70.81;46237.31;5001339;28;20154;-87
2024/01/31 07:43:47;;;;;;;21.40;9.47;;;;;;;-141.97;70.75;46137.41;4987465;28;20170;-86
2024/01/31 07:46:13;;;;;;;30.30;14.07;;;;;;;-141.97;70.89;45964.50;5016239;28;20174;-86
2024/01/31 07:48:38;;;;;;;29.53;12.93;;;;;;;-141.97;67.43;45920.31;4983662;28;20206;-88
2024/01/31 07:51:05;;;;;;;31.20;14.37;;;;;;;-141.97;65.69;46373.72;4984497;28;20185;-87
2024/01/31 07:53:31;;;;;;;22.08;9.82;;;;;;;-141.97;64.15;46373.72;4983392;28;20216;-88
2024/01/31 07:55:57;;;;;;;37.72;16.30;;;;;;;-141.97;64.86;46366.06;4999149;28;20181;-90
2024/01/31 07:58:22;;;;;;;76.37;27.90;;;;;;;-141.97;63.47;45979.88;5004327;28;20178;-88
2024/01/31 08:00:48;;;;;;;109.80;38.70;;;;;;;-141.97;61.54;46550.50;4999261;28;20174;-88
2024/01/31 08:03:13;;;;;;;37.13;17.63;;;;;;;-141.97;61.22;46371.81;4989231;28;20162;-87
2024/01/31 08:05:39;;;;;;;22.90;11.53;;;;;;;-141.97;61.68;46423.69;4995224;28;20231;-88
2024/01/31 08:08:04;;;;;;;31.13;11.77;;;;;;;-141.97;63.08;46141.25;4980604;28;20228;-88
2024/01/31 08:10:30;;;;;;;49.37;22.00;;;;;;;-141.97;62.94;46406.41;4980501;28;20547;-87
2024/01/31 08:12:55;;;;;;;142.47;40.10;;;;;;;-141.97;60.60;45866.53;4980525;28;20634;-88
2024/01/31 08:15:21;;;;;;;95.03;30.70;;;;;;;-141.97;59.81;46465.97;4981200;28;20178;-89
2024/01/31 08:17:47;;;;;;;115.63;35.10;;;;;;;-141.97;58.53;46043.28;4972893;28;20191;-90
2024/01/31 08:20:12;;;;;;;33.23;15.33;;;;;;;-141.97;57.98;46091.31;4960432;28;20583;-89
2024/01/31 08:22:38;;;;;;;31.00;13.70;;;;;;;-141.97;58.75;46492.88;4961254;28;20269;-89
2024/01/31 08:25:04;;;;;;;20.77;10.17;;;;;;;-141.97;59.10;46127.81;4960779;28;20172;-87
2024/01/31 08:27:30;;;;;;;37.03;18.27;;;;;;;-141.97;57.14;46125.88;4959479;28;20195;-90
2024/01/31 08:29:56;;;;;;;21.00;10.90;;;;;;;-141.97;55.65;46548.59;4976034;28;20547;-87
2024/01/31 08:32:21;;;;;;;19.93;10.20;;;;;;;-141.97;57.17;45951.06;4975106;28;20410;-88
2024/01/31 08:34:47;;;;;;;23.23;10.67;;;;;;;-141.97;53.33;46095.16;4958879;28;20175;-89
2024/01/31 08:37:12;;;;;;;25.33;10.43;;;;;;;-141.97;52.43;46394.88;4963583;28;20171;-92
2024/01/31 08:39:38;;;;;;;19.27;9.33;;;;;;;-141.97;51.41;45868.44;4981978;28;20164;-90
2024/01/31 08:42:04;;;;;;;25.50;11.37;;;;;;;-141.97;52.72;46102.81;4960836;28;20167;-87
2024/01/31 08:44:29;;;;;;;31.87;16.87;;;;;;;-141.97;50.53;46064.41;4962817;28;20556;-88
2024/01/31 08:46:55;;;;;;;21.40;10.63;;;;;;;-141.97;49.41;46367.97;4981889;28;20550;-87
2024/01/31 08:49:23;;;;;;;20.50;9.63;;;;;;;-141.97;49.25;46498.63;4973628;28;20179;-88
2024/01/31 08:51:48;;;;;;;22.17;10.37;;;;;;;-141.97;48.83;46356.44;4964569;28;20320;-88
2024/01/31 08:54:14;;;;;;;20.50;10.57;;;;;;;-141.97;47.91;46546.66;4975890;28;20438;-90
2024/01/31 08:56:39;;;;;;;23.40;11.63;;;;;;;-141.97;46.99;46271.91;4964659;28;20199;-89
2024/01/31 08:59:05;;;;;;;41.07;22.20;;;;;;;-141.97;46.59;46377.56;4966011;28;20230;-91
2024/01/31 09:01:31;;;;;;;27.97;14.70;;;;;;;-141.97;46.24;46348.75;4980960;28;20168;-89
2024/01/31 09:03:59;;;;;;;31.90;14.67;;;;;;;-141.97;45.24;46481.34;4967965;28;20250;-88
2024/01/31 09:06:24;;;;;;;24.47;12.30;;;;;;;-141.97;44.46;45924.16;4986230;28;20799;-88
2024/01/31 09:08:50;;;;;;;24.17;12.43;;;;;;;-141.97;45.28;46429.47;4996607;28;20476;-89
2024/01/31 09:11:15;;;;;;;76.37;32.40;;;;;;;-141.97;44.61;46112.44;4995930;28;20190;-89
2024/01/31 09:13:41;;;;;;;23.37;12.13;;;;;;;-141.97;44.56;45895.34;4968613;28;20178;-92
2024/01/31 09:16:08;;;;;;;22.80;11.63;;;;;;;-141.97;43.50;46329.53;4983461;28;20175;-90
2024/01/31 09:18:33;;;;;;;28.30;14.03;;;;;;;-141.97;45.49;46024.06;4982925;28;20430;-88
2024/01/31 09:20:59;;;;;;;23.80;10.97;;;;;;;-141.97;45.43;45935.69;4982516;28;20451;-89
2024/01/31 09:23:24;;;;;;;21.47;10.97;;;;;;;-141.97;44.80;45831.94;4982568;28;20175;-89
2024/01/31 09:25:50;;;;;;;26.00;12.43;;;;;;;-141.97;43.21;46001.00;4969738;28;20171;-89
2024/01/31 09:28:15;;;;;;;23.67;12.03;;;;;;;-141.97;41.86;46389.09;4988366;28;20193;-89
2024/01/31 09:30:43;;;;;;;21.07;11.27;;;;;;;-141.97;41.53;46229.63;4970046;28;20163;-88
2024/01/31 09:33:09;;;;;;;24.27;11.93;;;;;;;-141.97;41.18;45899.19;4972860;28;20238;-90
2024/01/31 09:35:40;;;;;;;21.37;11.00;;;;;;;-141.97;40.72;46425.63;4992565;28;20437;-90
2024/01/31 09:38:08;;;;;;;18.90;9.90;;;;;;;-141.97;40.01;45770.47;4992737;28;20324;-92
2024/01/31 09:40:38;;;;;;;20.17;10.90;;;;;;;-141.97;40.11;46006.78;4984025;28;20419;-91
2024/01/31 09:43:24;;;;;;;22.60;11.17;;;;;;;-141.97;39.59;45849.25;4975228;28;20419;-90
2024/01/31 09:45:51;;;;;;;20.07;10.90;;;;;;;-141.97;38.41;46016.38;4958196;28;20430;-91
2024/01/31 09:48:17;;;;;;;19.80;10.17;;;;;;;-141.97;37.65;45903.03;4957465;28;20208;-92
2024/01/31 09:50:46;;;;;;;19.60;10.60;;;;;;;-141.97;38.26;45801.22;4908156;29;20491;-92
2024/01/31 09:53:13;;;;;;;31.80;16.60;;;;;;;-141.97;38.80;46225.78;4919535;29;20193;-90
2024/01/31 09:55:38;;;;;;;17.07;10.00;;;;;;;-141.97;38.27;45997.16;4918999;29;20505;-90
2024/01/31 09:58:04;;;;;;;19.47;10.67;;;;;;;-141.97;37.51;45977.94;4923222;29;20425;-90
2024/01/31 10:00:31;;;;;;;22.27;11.70;;;;;;;-141.97;37.05;46062.47;4924709;29;20210;-90
2024/01/31 10:02:57;;;;;;;25.70;12.77;;;;;;;-141.97;36.50;46350.69;4913969;29;20442;-89
2024/01/31 10:05:25;;;;;;;28.43;15.43;;;;;;;-141.97;36.38;46225.78;4913869;29;20240;-89
2024/01/31 10:08:18;;;;;;;19.90;11.07;;;;;;;-141.97;34.77;45770.47;4919954;29;20536;-92
2024/01/31 10:10:43;;;;;;;16.80;9.20;;;;;;;-141.97;34.71;46389.09;4921089;29;20446;-88
2024/01/31 10:13:12;;;;;;;21.87;11.17;;;;;;;-141.97;34.42;45897.25;4886939;29;20206;-90
2024/01/31 10:15:37;;;;;;;16.60;9.07;;;;;;;-141.97;34.21;45835.78;4910743;29;20282;-90
2024/01/31 10:18:03;;;;;;;20.73;10.43;;;;;;;-141.97;33.84;46022.13;4925231;29;20664;-90
2024/01/31 10:20:30;;;;;;;21.27;10.77;;;;;;;-141.97;33.73;45733.97;4941781;28;20244;-89
2024/01/31 10:22:57;;;;;;;19.80;10.70;;;;;;;-141.97;33.64;46208.50;4960844;28;20203;-89
2024/01/31 10:25:28;;;;;;;23.30;11.70;;;;;;;-141.97;33.54;46164.31;4964051;28;20221;-90
2024/01/31 10:27:53;;;;;;;19.40;10.80;;;;;;;-141.97;33.55;46233.47;4967554;28;20723;-94
2024/01/31 10:30:21;;;;;;;21.17;11.27;;;;;;;-141.97;33.38;45870.38;4967703;28;20311;-91
2024/01/31 10:32:48;;;;;;;20.37;11.10;;;;;;;-141.97;33.73;46160.47;4970109;28;20168;-92
2024/01/31 10:35:14;;;;;;;18.83;9.20;;;;;;;-141.97;33.72;45862.69;4946890;28;20275;-90
2024/01/31 10:37:39;;;;;;;16.63;10.10;;;;;;;-141.97;34.16;45931.84;4934672;28;20214;-90
2024/01/31 10:40:06;;;;;;;17.23;10.43;;;;;;;-141.97;33.90;45733.97;4928840;29;20527;-86
2024/01/31 10:42:31;;;;;;;17.67;9.67;;;;;;;-141.97;33.58;46166.22;4959743;28;20436;-87
2024/01/31 10:44:57;;;;;;;17.90;9.77;;;;;;;-141.97;33.58;45910.72;4962057;28;20538;-88
2024/01/31 10:47:23;;;;;;;18.03;9.43;;;;;;;-141.97;33.20;45855.00;4977406;28;20208;-90
2024/01/31 10:49:48;;;;;;;19.90;10.50;;;;;;;-141.97;33.03;45931.84;4956566;28;20544;-89
2024/01/31 10:52:15;;;;;;;16.07;9.70;;;;;;;-141.97;32.93;45993.31;4971745;28;20194;-85
2024/01/31 10:54:43;;;;;;;17.37;9.20;;;;;;;-141.97;32.45;45822.34;4961048;28;20576;-87
2024/01/31 10:57:09;;;;;;;17.20;11.13;;;;;;;-141.97;32.25;46212.34;4956544;28;20704;-89